sensor_id;sensor_type;location;lat;lon;timestamp;pressure;altitude;pressure_sealevel;temperature;humidity
15489;BME280;7846;48.830;9.116;2023-04-02T00:00:30;97032.22;;;12.83;61.94
15489;BME280;7846;48.830;9.116;2023-04-02T00:03:09;97032.91;;;12.71;61.92
15489;BME280;7846;48.830;9.116;2023-04-02T00:05:58;97037.06;;;12.37;63.36
15489;BME280;7846;48.830;9.116;2023-04-02T00:08:58;97046.41;;;12.82;61.86
15489;BME280;7846;48.830;9.116;2023-04-02T00:12:21;97067.38;;;12.63;62.13
15489;BME280;7846;48.830;9.116;2023-04-02T00:15:32;97055.06;;;12.70;62.07
15489;BME280;7846;48.830;9.116;2023-04-02T00:21:58;97065.31;;;12.58;63.25
15489;BME280;7846;48.830;9.116;2023-04-02T00:24:44;97064.38;;;12.66;62.43
15489;BME280;7846;48.830;9.116;2023-04-02T00:28:24;97068.69;;;12.52;62.55
15489;BME280;7846;48.830;9.116;2023-04-02T00:31:37;97058.13;;;12.52;62.88
15489;BME280;7846;48.830;9.116;2023-04-02T01:01:21;97086.91;;;12.90;61.61
15489;BME280;7846;48.830;9.116;2023-04-02T01:04:39;97071.41;;;13.08;61.14
15489;BME280;7846;48.830;9.116;2023-04-02T01:11:36;97086.06;;;13.32;61.19
15489;BME280;7846;48.830;9.116;2023-04-02T01:47:09;97093.34;;;12.59;62.45
15489;BME280;7846;48.830;9.116;2023-04-02T01:51:33;97105.72;;;12.80;62.22
15489;BME280;7846;48.830;9.116;2023-04-02T01:54:19;97117.94;;;12.81;62.64
15489;BME280;7846;48.830;9.116;2023-04-02T01:57:23;97125.09;;;12.87;62.35
15489;BME280;7846;48.830;9.116;2023-04-02T02:00:47;97107.06;;;12.91;61.21
15489;BME280;7846;48.830;9.116;2023-04-02T02:03:51;97112.28;;;12.84;61.60
15489;BME280;7846;48.830;9.116;2023-04-02T02:07:43;97108.53;;;13.00;61.22
15489;BME280;7846;48.830;9.116;2023-04-02T02:10:47;97133.94;;;13.22;61.42
15489;BME280;7846;48.830;9.116;2023-04-02T02:25:08;97121.00;;;12.84;62.54
15489;BME280;7846;48.830;9.116;2023-04-02T02:29:12;97124.09;;;13.10;61.29
15489;BME280;7846;48.830;9.116;2023-04-02T02:32:38;97137.03;;;13.04;61.53
15489;BME280;7846;48.830;9.116;2023-04-02T02:39:42;97154.09;;;13.23;61.41
15489;BME280;7846;48.830;9.116;2023-04-02T02:43:00;97146.97;;;12.81;62.00
15489;BME280;7846;48.830;9.116;2023-04-02T02:57:22;97154.03;;;12.95;61.31
15489;BME280;7846;48.830;9.116;2023-04-02T03:05:06;97155.09;;;13.01;61.53
15489;BME280;7846;48.830;9.116;2023-04-02T03:13:29;97175.28;;;12.51;63.22
15489;BME280;7846;48.830;9.116;2023-04-02T03:29:29;97181.59;;;13.50;60.99
15489;BME280;7846;48.830;9.116;2023-04-02T03:41:04;97198.94;;;13.17;61.97
15489;BME280;7846;48.830;9.116;2023-04-02T03:44:38;97188.44;;;13.23;60.94
15489;BME280;7846;48.830;9.116;2023-04-02T03:47:39;97210.19;;;13.04;62.05
15489;BME280;7846;48.830;9.116;2023-04-02T03:54:44;97211.84;;;13.48;60.58
15489;BME280;7846;48.830;9.116;2023-04-02T04:05:20;97215.59;;;13.60;60.72
15489;BME280;7846;48.830;9.116;2023-04-02T04:09:07;97214.19;;;13.36;61.07
15489;BME280;7846;48.830;9.116;2023-04-02T04:12:51;97227.41;;;13.58;61.28
15489;BME280;7846;48.830;9.116;2023-04-02T04:16:19;97222.81;;;13.23;61.86
15489;BME280;7846;48.830;9.116;2023-04-02T04:48:24;97264.75;;;13.12;62.60
15489;BME280;7846;48.830;9.116;2023-04-02T04:55:47;97278.78;;;13.48;62.04
15489;BME280;7846;48.830;9.116;2023-04-02T04:59:02;97281.84;;;13.52;61.91
15489;BME280;7846;48.830;9.116;2023-04-02T05:08:34;97289.03;;;13.37;62.34
15489;BME280;7846;48.830;9.116;2023-04-02T05:11:44;97277.66;;;13.21;62.78
15489;BME280;7846;48.830;9.116;2023-04-02T05:14:44;97293.22;;;13.31;62.92
15489;BME280;7846;48.830;9.116;2023-04-02T05:43:42;97298.97;;;13.35;62.94
15489;BME280;7846;48.830;9.116;2023-04-02T05:55:02;97320.31;;;13.33;62.87
15489;BME280;7846;48.830;9.116;2023-04-02T05:58:23;97315.47;;;13.37;62.65
15489;BME280;7846;48.830;9.116;2023-04-02T06:02:16;97343.41;;;13.46;62.74
15489;BME280;7846;48.830;9.116;2023-04-02T06:05:38;97329.69;;;13.57;62.39
15489;BME280;7846;48.830;9.116;2023-04-02T06:09:20;97348.34;;;13.70;61.83
15489;BME280;7846;48.830;9.116;2023-04-02T06:16:31;97332.28;;;13.72;61.56
15489;BME280;7846;48.830;9.116;2023-04-02T06:19:30;97357.63;;;13.81;61.64
15489;BME280;7846;48.830;9.116;2023-04-02T06:25:50;97354.66;;;13.91;61.06
15489;BME280;7846;48.830;9.116;2023-04-02T06:28:44;97373.03;;;13.99;60.72
15489;BME280;7846;48.830;9.116;2023-04-02T06:31:47;97369.44;;;14.28;60.16
15489;BME280;7846;48.830;9.116;2023-04-02T06:34:38;97382.16;;;14.46;59.48
15489;BME280;7846;48.830;9.116;2023-04-02T06:37:38;97384.47;;;14.27;59.99
15489;BME280;7846;48.830;9.116;2023-04-02T06:40:57;97397.34;;;14.87;58.53
15489;BME280;7846;48.830;9.116;2023-04-02T06:44:08;97386.34;;;14.83;58.63
15489;BME280;7846;48.830;9.116;2023-04-02T06:47:05;97401.81;;;14.80;58.44
15489;BME280;7846;48.830;9.116;2023-04-02T06:49:59;97397.38;;;14.93;58.44
15489;BME280;7846;48.830;9.116;2023-04-02T06:52:59;97401.22;;;14.56;59.30
15489;BME280;7846;48.830;9.116;2023-04-02T06:56:41;97418.75;;;14.85;59.01
15489;BME280;7846;48.830;9.116;2023-04-02T06:59:11;97409.66;;;13.95;60.45
15489;BME280;7846;48.830;9.116;2023-04-02T07:02:00;97415.31;;;14.14;60.98
15489;BME280;7846;48.830;9.116;2023-04-02T07:05:04;97433.25;;;14.40;60.24
15489;BME280;7846;48.830;9.116;2023-04-02T07:07:54;97431.00;;;14.37;59.79
15489;BME280;7846;48.830;9.116;2023-04-02T07:10:44;97439.13;;;14.57;60.04
15489;BME280;7846;48.830;9.116;2023-04-02T07:13:39;97439.59;;;14.17;60.12
15489;BME280;7846;48.830;9.116;2023-04-02T07:16:26;97452.03;;;14.45;59.67
15489;BME280;7846;48.830;9.116;2023-04-02T07:19:29;97447.84;;;14.50;59.76
15489;BME280;7846;48.830;9.116;2023-04-02T07:22:15;97458.75;;;14.62;59.59
15489;BME280;7846;48.830;9.116;2023-04-02T07:28:39;97469.88;;;15.48;57.47
15489;BME280;7846;48.830;9.116;2023-04-02T07:31:48;97466.13;;;15.71;56.95
15489;BME280;7846;48.830;9.116;2023-04-02T07:34:47;97465.84;;;15.18;57.88
15489;BME280;7846;48.830;9.116;2023-04-02T07:37:38;97475.34;;;15.40;57.64
15489;BME280;7846;48.830;9.116;2023-04-02T07:40:40;97476.75;;;14.73;57.95
15489;BME280;7846;48.830;9.116;2023-04-02T07:43:42;97490.94;;;14.23;59.57
15489;BME280;7846;48.830;9.116;2023-04-02T07:46:36;97496.88;;;14.68;59.37
15489;BME280;7846;48.830;9.116;2023-04-02T07:55:54;97494.97;;;15.11;57.76
15489;BME280;7846;48.830;9.116;2023-04-02T07:58:46;97502.66;;;14.78;57.37
15489;BME280;7846;48.830;9.116;2023-04-02T08:02:02;97512.69;;;14.83;58.24
15489;BME280;7846;48.830;9.116;2023-04-02T08:04:51;97522.53;;;14.46;59.44
15489;BME280;7846;48.830;9.116;2023-04-02T08:07:51;97513.56;;;14.25;59.73
15489;BME280;7846;48.830;9.116;2023-04-02T08:10:46;97525.75;;;14.05;60.52
15489;BME280;7846;48.830;9.116;2023-04-02T08:13:39;97531.28;;;14.61;59.54
15489;BME280;7846;48.830;9.116;2023-04-02T08:16:53;97534.44;;;14.99;58.46
15489;BME280;7846;48.830;9.116;2023-04-02T08:19:41;97534.53;;;14.85;60.21
15489;BME280;7846;48.830;9.116;2023-04-02T08:22:31;97532.00;;;13.97;62.52
15489;BME280;7846;48.830;9.116;2023-04-02T08:25:15;97545.34;;;13.89;63.03
15489;BME280;7846;48.830;9.116;2023-04-02T08:28:08;97537.47;;;14.68;62.04
15489;BME280;7846;48.830;9.116;2023-04-02T08:31:36;97542.53;;;15.19;60.27
15489;BME280;7846;48.830;9.116;2023-04-02T08:35:09;97561.13;;;14.98;59.22
15489;BME280;7846;48.830;9.116;2023-04-02T08:38:03;97558.09;;;14.73;60.20
15489;BME280;7846;48.830;9.116;2023-04-02T08:40:58;97567.06;;;14.57;60.53
15489;BME280;7846;48.830;9.116;2023-04-02T08:44:25;97566.91;;;14.59;61.05
15489;BME280;7846;48.830;9.116;2023-04-02T08:47:28;97563.03;;;15.04;60.32
15489;BME280;7846;48.830;9.116;2023-04-02T08:50:38;97569.06;;;15.47;58.81
15489;BME280;7846;48.830;9.116;2023-04-02T08:53:41;97571.22;;;15.37;59.23
15489;BME280;7846;48.830;9.116;2023-04-02T08:56:29;97579.00;;;16.15;57.92
15489;BME280;7846;48.830;9.116;2023-04-02T08:59:39;97580.63;;;15.68;57.17
15489;BME280;7846;48.830;9.116;2023-04-02T09:02:38;97575.91;;;14.64;59.11
15489;BME280;7846;48.830;9.116;2023-04-02T09:05:27;97588.56;;;15.68;57.50
15489;BME280;7846;48.830;9.116;2023-04-02T09:12:50;97587.16;;;15.65;57.58
15489;BME280;7846;48.830;9.116;2023-04-02T09:19:11;97603.78;;;15.24;58.14
15489;BME280;7846;48.830;9.116;2023-04-02T09:25:28;97621.81;;;15.92;56.61
15489;BME280;7846;48.830;9.116;2023-04-02T09:28:21;97624.53;;;15.70;57.37
15489;BME280;7846;48.830;9.116;2023-04-02T09:31:29;97608.97;;;15.95;56.51
15489;BME280;7846;48.830;9.116;2023-04-02T09:37:23;97611.91;;;16.14;55.69
15489;BME280;7846;48.830;9.116;2023-04-02T09:44:28;97643.84;;;14.50;60.87
15489;BME280;7846;48.830;9.116;2023-04-02T09:47:51;97634.97;;;14.58;61.29
15489;BME280;7846;48.830;9.116;2023-04-02T09:57:38;97643.47;;;14.54;60.36
15489;BME280;7846;48.830;9.116;2023-04-02T10:00:25;97640.41;;;14.20;60.38
15489;BME280;7846;48.830;9.116;2023-04-02T10:03:30;97663.75;;;15.25;59.49
15489;BME280;7846;48.830;9.116;2023-04-02T10:06:18;97665.75;;;15.23;58.23
15489;BME280;7846;48.830;9.116;2023-04-02T10:09:32;97667.94;;;15.63;57.13
15489;BME280;7846;48.830;9.116;2023-04-02T10:12:20;97670.19;;;15.94;56.33
15489;BME280;7846;48.830;9.116;2023-04-02T10:15:05;97666.69;;;16.21;55.92
15489;BME280;7846;48.830;9.116;2023-04-02T10:18:03;97680.97;;;16.68;54.77
15489;BME280;7846;48.830;9.116;2023-04-02T10:20:49;97674.84;;;16.61;54.73
15489;BME280;7846;48.830;9.116;2023-04-02T10:23:35;97679.81;;;16.78;53.72
15489;BME280;7846;48.830;9.116;2023-04-02T10:30:28;97688.59;;;16.78;52.62
15489;BME280;7846;48.830;9.116;2023-04-02T10:33:08;97694.41;;;17.08;52.16
15489;BME280;7846;48.830;9.116;2023-04-02T10:36:11;97692.09;;;16.37;53.40
15489;BME280;7846;48.830;9.116;2023-04-02T10:39:19;97696.72;;;16.70;53.61
15489;BME280;7846;48.830;9.116;2023-04-02T10:46:05;97695.44;;;17.07;52.04
15489;BME280;7846;48.830;9.116;2023-04-02T10:49:47;97693.00;;;16.64;53.05
15489;BME280;7846;48.830;9.116;2023-04-02T10:53:06;97708.34;;;16.62;53.53
15489;BME280;7846;48.830;9.116;2023-04-02T10:55:57;97711.19;;;17.15;52.06
15489;BME280;7846;48.830;9.116;2023-04-02T10:58:56;97715.13;;;17.39;52.23
15489;BME280;7846;48.830;9.116;2023-04-02T11:01:42;97724.13;;;17.38;52.11
15489;BME280;7846;48.830;9.116;2023-04-02T11:04:34;97713.09;;;17.75;51.38
15489;BME280;7846;48.830;9.116;2023-04-02T11:07:27;97717.31;;;17.16;51.44
15489;BME280;7846;48.830;9.116;2023-04-02T11:10:16;97715.06;;;17.06;52.43
15489;BME280;7846;48.830;9.116;2023-04-02T11:13:28;97727.41;;;17.34;51.06
15489;BME280;7846;48.830;9.116;2023-04-02T11:16:14;97729.25;;;17.33;51.97
15489;BME280;7846;48.830;9.116;2023-04-02T11:19:22;97719.81;;;18.24;50.51
15489;BME280;7846;48.830;9.116;2023-04-02T11:26:54;97734.38;;;18.14;50.26
15489;BME280;7846;48.830;9.116;2023-04-02T11:30:26;97741.91;;;18.44;49.28
15489;BME280;7846;48.830;9.116;2023-04-02T11:33:42;97748.75;;;17.87;50.93
15489;BME280;7846;48.830;9.116;2023-04-02T11:37:05;97749.97;;;18.04;51.52
15489;BME280;7846;48.830;9.116;2023-04-02T11:40:45;97751.19;;;18.08;51.23
15489;BME280;7846;48.830;9.116;2023-04-02T20:57:14;98529.19;;;8.61;58.23
15489;BME280;7846;48.830;9.116;2023-04-02T21:00:08;98544.13;;;8.17;59.69
15489;BME280;7846;48.830;9.116;2023-04-02T21:03:05;98536.59;;;7.80;60.46
15489;BME280;7846;48.830;9.116;2023-04-02T21:05:54;98546.25;;;7.68;60.73
15489;BME280;7846;48.830;9.116;2023-04-02T21:08:42;98539.69;;;7.63;61.51
15489;BME280;7846;48.830;9.116;2023-04-02T21:11:27;98557.88;;;7.98;60.35
15489;BME280;7846;48.830;9.116;2023-04-02T21:14:15;98548.16;;;7.66;60.81
15489;BME280;7846;48.830;9.116;2023-04-02T21:17:04;98567.91;;;8.89;58.33
15489;BME280;7846;48.830;9.116;2023-04-02T21:19:57;98554.31;;;8.63;58.09
15489;BME280;7846;48.830;9.116;2023-04-02T21:22:41;98554.66;;;8.38;58.75
15489;BME280;7846;48.830;9.116;2023-04-02T21:25:25;98567.78;;;8.38;58.26
15489;BME280;7846;48.830;9.116;2023-04-02T21:28:18;98560.16;;;8.35;58.93
15489;BME280;7846;48.830;9.116;2023-04-02T21:31:19;98557.00;;;8.52;58.67
15489;BME280;7846;48.830;9.116;2023-04-02T21:42:21;98550.50;;;8.35;58.03
15489;BME280;7846;48.830;9.116;2023-04-02T21:45:52;98581.81;;;8.80;57.43
15489;BME280;7846;48.830;9.116;2023-04-02T21:48:51;98566.97;;;8.26;58.89
15489;BME280;7846;48.830;9.116;2023-04-02T21:51:55;98586.44;;;9.09;57.23
15489;BME280;7846;48.830;9.116;2023-04-02T21:55:58;98570.94;;;8.53;57.70
15489;BME280;7846;48.830;9.116;2023-04-02T21:59:51;98587.50;;;8.64;58.53
15489;BME280;7846;48.830;9.116;2023-04-02T22:07:12;98605.03;;;8.85;58.36
15489;BME280;7846;48.830;9.116;2023-04-02T22:10:10;98594.22;;;8.03;58.63
15489;BME280;7846;48.830;9.116;2023-04-02T22:13:11;98607.22;;;7.70;59.41
15489;BME280;7846;48.830;9.116;2023-04-02T22:16:29;98587.38;;;8.66;57.68
15489;BME280;7846;48.830;9.116;2023-04-02T22:19:21;98612.72;;;8.44;58.16
15489;BME280;7846;48.830;9.116;2023-04-02T22:22:09;98593.31;;;8.24;58.95
15489;BME280;7846;48.830;9.116;2023-04-02T22:25:01;98614.75;;;8.41;57.52
15489;BME280;7846;48.830;9.116;2023-04-02T22:27:49;98616.16;;;7.90;58.35
15489;BME280;7846;48.830;9.116;2023-04-02T22:30:39;98598.25;;;7.95;58.16
15489;BME280;7846;48.830;9.116;2023-04-02T22:33:34;98614.94;;;8.06;58.42
15489;BME280;7846;48.830;9.116;2023-04-02T22:36:50;98611.13;;;8.64;57.33
15489;BME280;7846;48.830;9.116;2023-04-02T22:39:44;98614.66;;;8.95;56.73
15489;BME280;7846;48.830;9.116;2023-04-02T22:42:34;98609.31;;;8.86;56.23
15489;BME280;7846;48.830;9.116;2023-04-02T22:45:58;98598.03;;;8.53;56.81
15489;BME280;7846;48.830;9.116;2023-04-02T22:48:42;98604.75;;;8.35;56.63
15489;BME280;7846;48.830;9.116;2023-04-02T22:51:29;98615.19;;;7.91;57.76
15489;BME280;7846;48.830;9.116;2023-04-02T22:54:13;98612.69;;;7.67;58.39
15489;BME280;7846;48.830;9.116;2023-04-02T22:57:01;98611.59;;;8.04;57.48
15489;BME280;7846;48.830;9.116;2023-04-02T22:59:45;98594.63;;;8.19;56.51
15489;BME280;7846;48.830;9.116;2023-04-02T23:02:29;98603.19;;;8.32;56.86
15489;BME280;7846;48.830;9.116;2023-04-02T23:05:13;98593.34;;;8.68;55.47
15489;BME280;7846;48.830;9.116;2023-04-02T23:07:57;98601.28;;;8.23;56.88
15489;BME280;7846;48.830;9.116;2023-04-02T23:10:42;98588.63;;;7.40;57.59
15489;BME280;7846;48.830;9.116;2023-04-02T23:13:26;98606.06;;;8.29;56.84
15489;BME280;7846;48.830;9.116;2023-04-02T23:16:12;98583.19;;;8.31;56.84
15489;BME280;7846;48.830;9.116;2023-04-02T23:18:57;98602.34;;;7.77;56.94
15489;BME280;7846;48.830;9.116;2023-04-02T23:21:42;98596.59;;;7.94;57.47
15489;BME280;7846;48.830;9.116;2023-04-02T23:24:29;98595.03;;;8.58;56.56
15489;BME280;7846;48.830;9.116;2023-04-02T23:27:14;98598.97;;;8.09;56.57
15489;BME280;7846;48.830;9.116;2023-04-02T23:30:02;98607.66;;;8.09;57.33
15489;BME280;7846;48.830;9.116;2023-04-02T23:32:50;98601.94;;;8.59;55.98
15489;BME280;7846;48.830;9.116;2023-04-02T23:35:42;98603.31;;;8.42;55.94
15489;BME280;7846;48.830;9.116;2023-04-02T23:38:33;98586.59;;;7.88;56.95
15489;BME280;7846;48.830;9.116;2023-04-02T23:41:21;98585.75;;;7.88;57.54
15489;BME280;7846;48.830;9.116;2023-04-02T23:44:10;98593.44;;;8.23;56.68
15489;BME280;7846;48.830;9.116;2023-04-02T23:47:00;98602.34;;;7.66;58.07
15489;BME280;7846;48.830;9.116;2023-04-02T23:50:12;98590.19;;;7.76;57.45
15489;BME280;7846;48.830;9.116;2023-04-02T23:53:12;98607.81;;;7.63;57.67
15489;BME280;7846;48.830;9.116;2023-04-02T23:56:08;98603.00;;;8.13;57.57
15489;BME280;7846;48.830;9.116;2023-04-02T23:58:55;98579.13;;;7.72;57.02
